sensor_id;sensor_type;location;lat;lon;timestamp;temperature;humidity
30128;DHT22;16942;53.196;6.592;2022-07-25T00:01:12;22.50;99.90
30128;DHT22;16942;53.196;6.592;2022-07-25T00:03:37;22.50;99.90
30128;DHT22;16942;53.196;6.592;2022-07-25T00:06:03;22.40;99.90
30128;DHT22;16942;53.196;6.592;2022-07-25T00:08:29;22.40;99.90
30128;DHT22;16942;53.196;6.592;2022-07-25T00:10:55;22.40;99.90
30128;DHT22;16942;53.196;6.592;2022-07-25T00:13:20;22.40;99.90
30128;DHT22;16942;53.196;6.592;2022-07-25T00:15:46;22.40;99.90
30128;DHT22;16942;53.196;6.592;2022-07-25T00:18:11;22.40;99.90
30128;DHT22;16942;53.196;6.592;2022-07-25T00:20:37;22.40;99.90
30128;DHT22;16942;53.196;6.592;2022-07-25T00:23:02;22.40;99.90
30128;DHT22;16942;53.196;6.592;2022-07-25T00:25:28;22.30;99.90
30128;DHT22;16942;53.196;6.592;2022-07-25T00:27:54;22.30;99.90
30128;DHT22;16942;53.196;6.592;2022-07-25T00:30:19;22.30;99.90
30128;DHT22;16942;53.196;6.592;2022-07-25T00:32:45;22.30;99.90
30128;DHT22;16942;53.196;6.592;2022-07-25T00:35:11;22.30;99.90
30128;DHT22;16942;53.196;6.592;2022-07-25T00:37:36;22.20;99.90
30128;DHT22;16942;53.196;6.592;2022-07-25T00:40:02;22.10;99.90
30128;DHT22;16942;53.196;6.592;2022-07-25T00:42:29;22.10;99.90
30128;DHT22;16942;53.196;6.592;2022-07-25T00:44:54;22.00;99.90
30128;DHT22;16942;53.196;6.592;2022-07-25T00:47:20;22.00;99.90
30128;DHT22;16942;53.196;6.592;2022-07-25T00:49:46;21.90;99.90
30128;DHT22;16942;53.196;6.592;2022-07-25T00:52:12;21.90;99.90
30128;DHT22;16942;53.196;6.592;2022-07-25T00:54:38;21.80;99.90
30128;DHT22;16942;53.196;6.592;2022-07-25T00:57:04;21.80;99.90
30128;DHT22;16942;53.196;6.592;2022-07-25T00:59:29;21.70;99.90
30128;DHT22;16942;53.196;6.592;2022-07-25T01:01:55;21.70;99.90
30128;DHT22;16942;53.196;6.592;2022-07-25T01:04:21;21.70;99.90
30128;DHT22;16942;53.196;6.592;2022-07-25T01:06:46;21.70;99.90
30128;DHT22;16942;53.196;6.592;2022-07-25T01:09:12;21.70;99.90
30128;DHT22;16942;53.196;6.592;2022-07-25T01:11:38;21.80;99.90
30128;DHT22;16942;53.196;6.592;2022-07-25T01:14:04;21.70;99.90
30128;DHT22;16942;53.196;6.592;2022-07-25T01:16:30;21.70;99.90
30128;DHT22;16942;53.196;6.592;2022-07-25T01:18:56;21.70;99.90
30128;DHT22;16942;53.196;6.592;2022-07-25T01:21:23;21.70;99.90
30128;DHT22;16942;53.196;6.592;2022-07-25T01:23:48;21.60;99.90
30128;DHT22;16942;53.196;6.592;2022-07-25T01:26:14;21.60;99.90
30128;DHT22;16942;53.196;6.592;2022-07-25T01:28:40;21.60;99.90
30128;DHT22;16942;53.196;6.592;2022-07-25T01:31:05;21.50;99.90
30128;DHT22;16942;53.196;6.592;2022-07-25T01:33:31;21.50;99.90
30128;DHT22;16942;53.196;6.592;2022-07-25T01:35:57;21.50;99.90
30128;DHT22;16942;53.196;6.592;2022-07-25T01:38:23;21.40;99.90
30128;DHT22;16942;53.196;6.592;2022-07-25T01:40:50;21.40;99.90
30128;DHT22;16942;53.196;6.592;2022-07-25T01:43:15;21.30;99.90
30128;DHT22;16942;53.196;6.592;2022-07-25T01:45:41;21.20;99.90
30128;DHT22;16942;53.196;6.592;2022-07-25T01:48:07;21.20;99.90
30128;DHT22;16942;53.196;6.592;2022-07-25T01:50:32;21.10;99.90
30128;DHT22;16942;53.196;6.592;2022-07-25T01:52:58;21.10;99.90
30128;DHT22;16942;53.196;6.592;2022-07-25T01:55:24;21.10;99.90
30128;DHT22;16942;53.196;6.592;2022-07-25T01:57:49;21.10;99.90
30128;DHT22;16942;53.196;6.592;2022-07-25T02:00:16;21.00;99.90
30128;DHT22;16942;53.196;6.592;2022-07-25T02:02:43;21.00;99.90
30128;DHT22;16942;53.196;6.592;2022-07-25T02:05:10;21.00;99.90
30128;DHT22;16942;53.196;6.592;2022-07-25T02:07:36;20.90;99.90
30128;DHT22;16942;53.196;6.592;2022-07-25T02:10:04;20.90;99.90
30128;DHT22;16942;53.196;6.592;2022-07-25T02:12:30;20.90;99.90
30128;DHT22;16942;53.196;6.592;2022-07-25T02:14:56;20.80;99.90
30128;DHT22;16942;53.196;6.592;2022-07-25T02:17:22;20.80;99.90
30128;DHT22;16942;53.196;6.592;2022-07-25T02:19:47;20.80;99.90
30128;DHT22;16942;53.196;6.592;2022-07-25T02:22:13;20.80;99.90
30128;DHT22;16942;53.196;6.592;2022-07-25T02:24:39;20.80;99.90
30128;DHT22;16942;53.196;6.592;2022-07-25T02:27:05;20.80;99.90
30128;DHT22;16942;53.196;6.592;2022-07-25T02:29:31;21.00;99.90
30128;DHT22;16942;53.196;6.592;2022-07-25T02:31:57;21.10;99.90
30128;DHT22;16942;53.196;6.592;2022-07-25T02:34:23;21.20;99.90
30128;DHT22;16942;53.196;6.592;2022-07-25T02:36:49;21.40;99.90
30128;DHT22;16942;53.196;6.592;2022-07-25T02:39:15;21.50;99.90
30128;DHT22;16942;53.196;6.592;2022-07-25T02:41:42;21.60;99.90
30128;DHT22;16942;53.196;6.592;2022-07-25T02:44:08;21.60;99.90
30128;DHT22;16942;53.196;6.592;2022-07-25T02:46:34;21.60;99.90
30128;DHT22;16942;53.196;6.592;2022-07-25T02:48:59;21.50;99.90
30128;DHT22;16942;53.196;6.592;2022-07-25T02:51:25;21.50;99.90
30128;DHT22;16942;53.196;6.592;2022-07-25T02:53:51;21.60;99.90
30128;DHT22;16942;53.196;6.592;2022-07-25T02:56:16;21.60;99.90
30128;DHT22;16942;53.196;6.592;2022-07-25T02:58:42;21.60;99.90
30128;DHT22;16942;53.196;6.592;2022-07-25T03:01:08;21.60;99.90
30128;DHT22;16942;53.196;6.592;2022-07-25T03:03:34;21.60;99.90
30128;DHT22;16942;53.196;6.592;2022-07-25T03:06:00;21.60;99.90
30128;DHT22;16942;53.196;6.592;2022-07-25T03:08:26;21.60;99.90
30128;DHT22;16942;53.196;6.592;2022-07-25T03:10:52;21.60;99.90
30128;DHT22;16942;53.196;6.592;2022-07-25T03:13:17;21.50;99.90
30128;DHT22;16942;53.196;6.592;2022-07-25T03:15:43;21.50;99.90
30128;DHT22;16942;53.196;6.592;2022-07-25T03:18:08;21.40;99.90
30128;DHT22;16942;53.196;6.592;2022-07-25T03:20:34;21.40;99.90
30128;DHT22;16942;53.196;6.592;2022-07-25T03:23:00;21.40;99.90
30128;DHT22;16942;53.196;6.592;2022-07-25T03:25:25;21.30;99.90
30128;DHT22;16942;53.196;6.592;2022-07-25T03:27:51;21.30;99.90
30128;DHT22;16942;53.196;6.592;2022-07-25T03:30:17;21.30;99.90
30128;DHT22;16942;53.196;6.592;2022-07-25T03:32:42;21.20;99.90
30128;DHT22;16942;53.196;6.592;2022-07-25T03:35:09;21.20;99.90
30128;DHT22;16942;53.196;6.592;2022-07-25T03:37:34;21.10;99.90
30128;DHT22;16942;53.196;6.592;2022-07-25T03:40:00;21.10;99.90
30128;DHT22;16942;53.196;6.592;2022-07-25T03:42:25;21.10;99.90
30128;DHT22;16942;53.196;6.592;2022-07-25T03:44:51;21.10;99.90
30128;DHT22;16942;53.196;6.592;2022-07-25T03:47:17;21.10;99.90
30128;DHT22;16942;53.196;6.592;2022-07-25T03:49:42;21.10;99.90
30128;DHT22;16942;53.196;6.592;2022-07-25T03:52:08;21.10;99.90
30128;DHT22;16942;53.196;6.592;2022-07-25T03:54:34;21.00;99.90
30128;DHT22;16942;53.196;6.592;2022-07-25T03:56:59;21.00;99.90
30128;DHT22;16942;53.196;6.592;2022-07-25T03:59:25;21.00;99.90
30128;DHT22;16942;53.196;6.592;2022-07-25T04:01:51;21.00;99.90
30128;DHT22;16942;53.196;6.592;2022-07-25T04:04:17;20.90;99.90
30128;DHT22;16942;53.196;6.592;2022-07-25T04:06:44;20.90;99.90
30128;DHT22;16942;53.196;6.592;2022-07-25T04:09:11;21.00;99.90
30128;DHT22;16942;53.196;6.592;2022-07-25T04:11:37;21.00;99.90
30128;DHT22;16942;53.196;6.592;2022-07-25T04:14:04;21.00;99.90
30128;DHT22;16942;53.196;6.592;2022-07-25T04:16:29;20.90;99.90
30128;DHT22;16942;53.196;6.592;2022-07-25T04:18:55;21.00;99.90
30128;DHT22;16942;53.196;6.592;2022-07-25T04:21:22;21.00;99.90
30128;DHT22;16942;53.196;6.592;2022-07-25T04:23:48;21.00;99.90
30128;DHT22;16942;53.196;6.592;2022-07-25T04:26:13;21.00;99.90
30128;DHT22;16942;53.196;6.592;2022-07-25T04:28:39;21.00;99.90
30128;DHT22;16942;53.196;6.592;2022-07-25T04:31:05;21.00;99.90
30128;DHT22;16942;53.196;6.592;2022-07-25T04:33:30;21.00;99.90
30128;DHT22;16942;53.196;6.592;2022-07-25T04:35:56;21.10;99.90
30128;DHT22;16942;53.196;6.592;2022-07-25T04:38:21;21.10;99.90
30128;DHT22;16942;53.196;6.592;2022-07-25T04:40:47;21.10;99.90
30128;DHT22;16942;53.196;6.592;2022-07-25T04:43:13;21.20;99.90
30128;DHT22;16942;53.196;6.592;2022-07-25T04:45:39;21.20;99.90
30128;DHT22;16942;53.196;6.592;2022-07-25T04:48:05;21.20;99.90
30128;DHT22;16942;53.196;6.592;2022-07-25T04:50:31;21.30;99.90
30128;DHT22;16942;53.196;6.592;2022-07-25T04:52:56;21.40;99.90
30128;DHT22;16942;53.196;6.592;2022-07-25T04:55:22;21.40;99.90
30128;DHT22;16942;53.196;6.592;2022-07-25T04:57:48;21.40;99.90
30128;DHT22;16942;53.196;6.592;2022-07-25T05:00:14;21.40;99.90
30128;DHT22;16942;53.196;6.592;2022-07-25T05:02:40;21.50;99.90
30128;DHT22;16942;53.196;6.592;2022-07-25T05:05:06;21.50;99.90
30128;DHT22;16942;53.196;6.592;2022-07-25T05:07:33;21.60;99.90
30128;DHT22;16942;53.196;6.592;2022-07-25T05:09:59;21.70;99.90
30128;DHT22;16942;53.196;6.592;2022-07-25T05:12:24;21.80;99.90
30128;DHT22;16942;53.196;6.592;2022-07-25T05:14:50;21.80;99.90
30128;DHT22;16942;53.196;6.592;2022-07-25T05:17:16;21.90;99.90
30128;DHT22;16942;53.196;6.592;2022-07-25T05:19:41;21.80;99.90
30128;DHT22;16942;53.196;6.592;2022-07-25T05:22:07;21.90;99.90
30128;DHT22;16942;53.196;6.592;2022-07-25T05:24:34;21.90;99.90
30128;DHT22;16942;53.196;6.592;2022-07-25T05:27:00;21.90;99.90
30128;DHT22;16942;53.196;6.592;2022-07-25T05:29:26;22.00;99.90
30128;DHT22;16942;53.196;6.592;2022-07-25T05:31:52;22.10;99.90
30128;DHT22;16942;53.196;6.592;2022-07-25T05:34:17;22.10;99.90
30128;DHT22;16942;53.196;6.592;2022-07-25T05:36:43;22.10;99.90
30128;DHT22;16942;53.196;6.592;2022-07-25T05:39:08;22.20;99.90
30128;DHT22;16942;53.196;6.592;2022-07-25T05:41:34;22.20;99.90
30128;DHT22;16942;53.196;6.592;2022-07-25T05:44:00;22.20;99.90
30128;DHT22;16942;53.196;6.592;2022-07-25T05:46:25;22.20;99.90
30128;DHT22;16942;53.196;6.592;2022-07-25T05:48:51;22.20;99.90
30128;DHT22;16942;53.196;6.592;2022-07-25T05:51:17;22.20;99.90
30128;DHT22;16942;53.196;6.592;2022-07-25T05:53:42;22.20;99.90
30128;DHT22;16942;53.196;6.592;2022-07-25T05:56:08;22.30;99.90
30128;DHT22;16942;53.196;6.592;2022-07-25T05:58:34;22.40;99.90
30128;DHT22;16942;53.196;6.592;2022-07-25T06:01:01;22.50;99.90
30128;DHT22;16942;53.196;6.592;2022-07-25T06:03:27;22.50;99.90
30128;DHT22;16942;53.196;6.592;2022-07-25T06:05:54;22.60;99.90
30128;DHT22;16942;53.196;6.592;2022-07-25T06:08:20;22.60;99.90
30128;DHT22;16942;53.196;6.592;2022-07-25T06:10:46;22.60;99.90
30128;DHT22;16942;53.196;6.592;2022-07-25T06:13:12;22.60;99.90
30128;DHT22;16942;53.196;6.592;2022-07-25T06:15:37;22.70;99.90
30128;DHT22;16942;53.196;6.592;2022-07-25T06:18:03;22.80;99.90
30128;DHT22;16942;53.196;6.592;2022-07-25T06:20:29;22.80;99.90
30128;DHT22;16942;53.196;6.592;2022-07-25T06:22:54;22.90;99.90
30128;DHT22;16942;53.196;6.592;2022-07-25T06:25:20;22.90;99.90
30128;DHT22;16942;53.196;6.592;2022-07-25T06:27:46;22.90;99.90
30128;DHT22;16942;53.196;6.592;2022-07-25T06:30:12;23.00;99.90
30128;DHT22;16942;53.196;6.592;2022-07-25T06:32:38;23.00;99.90
30128;DHT22;16942;53.196;6.592;2022-07-25T06:35:04;23.00;99.90
30128;DHT22;16942;53.196;6.592;2022-07-25T06:37:30;23.00;99.90
30128;DHT22;16942;53.196;6.592;2022-07-25T06:39:56;23.10;99.90
30128;DHT22;16942;53.196;6.592;2022-07-25T06:42:22;23.20;99.90
30128;DHT22;16942;53.196;6.592;2022-07-25T06:44:48;23.30;99.90
30128;DHT22;16942;53.196;6.592;2022-07-25T06:47:13;23.40;99.90
30128;DHT22;16942;53.196;6.592;2022-07-25T06:49:40;23.60;99.90
30128;DHT22;16942;53.196;6.592;2022-07-25T06:52:06;23.70;99.90
30128;DHT22;16942;53.196;6.592;2022-07-25T06:54:32;23.90;99.90
30128;DHT22;16942;53.196;6.592;2022-07-25T06:56:58;24.00;99.90
30128;DHT22;16942;53.196;6.592;2022-07-25T06:59:24;24.10;99.90
30128;DHT22;16942;53.196;6.592;2022-07-25T07:01:49;24.10;99.90
30128;DHT22;16942;53.196;6.592;2022-07-25T07:04:15;24.20;99.90
30128;DHT22;16942;53.196;6.592;2022-07-25T07:06:40;24.20;99.90
30128;DHT22;16942;53.196;6.592;2022-07-25T07:09:06;24.30;99.90
30128;DHT22;16942;53.196;6.592;2022-07-25T07:11:33;24.30;99.90
30128;DHT22;16942;53.196;6.592;2022-07-25T07:13:59;24.30;99.90
30128;DHT22;16942;53.196;6.592;2022-07-25T07:16:28;24.20;99.90
30128;DHT22;16942;53.196;6.592;2022-07-25T07:18:53;24.20;99.90
30128;DHT22;16942;53.196;6.592;2022-07-25T07:21:19;24.10;99.90
30128;DHT22;16942;53.196;6.592;2022-07-25T07:23:45;24.20;99.90
30128;DHT22;16942;53.196;6.592;2022-07-25T07:26:10;24.30;99.90
30128;DHT22;16942;53.196;6.592;2022-07-25T07:28:38;24.40;99.90
30128;DHT22;16942;53.196;6.592;2022-07-25T07:31:03;24.50;99.90
30128;DHT22;16942;53.196;6.592;2022-07-25T07:33:29;24.60;99.90
30128;DHT22;16942;53.196;6.592;2022-07-25T07:35:57;24.60;99.90
30128;DHT22;16942;53.196;6.592;2022-07-25T07:38:23;24.60;99.90
30128;DHT22;16942;53.196;6.592;2022-07-25T07:40:48;24.70;99.90
30128;DHT22;16942;53.196;6.592;2022-07-25T07:43:14;24.80;99.90
30128;DHT22;16942;53.196;6.592;2022-07-25T07:45:40;24.80;99.90
30128;DHT22;16942;53.196;6.592;2022-07-25T07:48:06;24.80;99.90
30128;DHT22;16942;53.196;6.592;2022-07-25T07:50:32;24.90;99.90
30128;DHT22;16942;53.196;6.592;2022-07-25T07:52:58;24.80;99.90
30128;DHT22;16942;53.196;6.592;2022-07-25T07:55:24;24.80;99.90
30128;DHT22;16942;53.196;6.592;2022-07-25T07:58:09;24.90;99.90
30128;DHT22;16942;53.196;6.592;2022-07-25T08:00:36;25.00;99.90
30128;DHT22;16942;53.196;6.592;2022-07-25T08:03:04;25.20;99.90
30128;DHT22;16942;53.196;6.592;2022-07-25T08:05:34;25.20;99.90
30128;DHT22;16942;53.196;6.592;2022-07-25T08:08:00;25.10;99.90
30128;DHT22;16942;53.196;6.592;2022-07-25T08:10:28;25.20;99.90
30128;DHT22;16942;53.196;6.592;2022-07-25T08:12:55;25.20;99.90
30128;DHT22;16942;53.196;6.592;2022-07-25T08:15:22;25.30;99.90
30128;DHT22;16942;53.196;6.592;2022-07-25T08:17:49;25.40;99.90
30128;DHT22;16942;53.196;6.592;2022-07-25T08:20:16;25.50;99.90
30128;DHT22;16942;53.196;6.592;2022-07-25T08:22:46;25.50;99.90
30128;DHT22;16942;53.196;6.592;2022-07-25T08:25:17;25.60;99.90
30128;DHT22;16942;53.196;6.592;2022-07-25T08:27:45;25.70;99.90
30128;DHT22;16942;53.196;6.592;2022-07-25T08:30:12;25.60;99.90
30128;DHT22;16942;53.196;6.592;2022-07-25T08:32:54;25.60;99.90
30128;DHT22;16942;53.196;6.592;2022-07-25T08:35:23;25.60;99.90
30128;DHT22;16942;53.196;6.592;2022-07-25T08:37:50;25.50;99.90
30128;DHT22;16942;53.196;6.592;2022-07-25T08:40:18;25.30;99.90
30128;DHT22;16942;53.196;6.592;2022-07-25T08:42:46;25.10;99.90
30128;DHT22;16942;53.196;6.592;2022-07-25T08:45:13;24.90;99.90
30128;DHT22;16942;53.196;6.592;2022-07-25T08:47:41;24.80;99.90
30128;DHT22;16942;53.196;6.592;2022-07-25T08:50:09;24.60;99.90
30128;DHT22;16942;53.196;6.592;2022-07-25T08:52:35;24.50;99.90
30128;DHT22;16942;53.196;6.592;2022-07-25T08:55:07;24.40;99.90
30128;DHT22;16942;53.196;6.592;2022-07-25T08:57:34;24.40;99.90
30128;DHT22;16942;53.196;6.592;2022-07-25T09:00:01;24.40;99.90
30128;DHT22;16942;53.196;6.592;2022-07-25T09:02:27;24.30;99.90
30128;DHT22;16942;53.196;6.592;2022-07-25T09:04:54;24.40;99.90
30128;DHT22;16942;53.196;6.592;2022-07-25T09:07:32;24.50;99.90
30128;DHT22;16942;53.196;6.592;2022-07-25T09:09:58;24.60;99.90
30128;DHT22;16942;53.196;6.592;2022-07-25T09:12:27;24.80;99.90
30128;DHT22;16942;53.196;6.592;2022-07-25T09:14:53;25.00;99.90
30128;DHT22;16942;53.196;6.592;2022-07-25T09:17:19;25.20;99.90
30128;DHT22;16942;53.196;6.592;2022-07-25T09:19:55;25.30;99.90
30128;DHT22;16942;53.196;6.592;2022-07-25T09:22:21;25.40;99.90
30128;DHT22;16942;53.196;6.592;2022-07-25T09:24:48;25.40;99.90
30128;DHT22;16942;53.196;6.592;2022-07-25T09:27:14;25.50;99.90
30128;DHT22;16942;53.196;6.592;2022-07-25T09:29:41;25.70;99.90
30128;DHT22;16942;53.196;6.592;2022-07-25T09:32:16;25.70;99.90
30128;DHT22;16942;53.196;6.592;2022-07-25T09:34:44;25.80;99.90
30128;DHT22;16942;53.196;6.592;2022-07-25T09:37:12;25.90;99.90
30128;DHT22;16942;53.196;6.592;2022-07-25T09:39:41;25.90;99.90
30128;DHT22;16942;53.196;6.592;2022-07-25T09:42:31;26.00;99.90
30128;DHT22;16942;53.196;6.592;2022-07-25T09:47:25;26.30;99.90
30128;DHT22;16942;53.196;6.592;2022-07-25T09:49:51;26.40;99.90
30128;DHT22;16942;53.196;6.592;2022-07-25T09:52:17;26.50;99.90
30128;DHT22;16942;53.196;6.592;2022-07-25T09:54:43;26.60;99.90
30128;DHT22;16942;53.196;6.592;2022-07-25T09:57:09;26.60;99.90
30128;DHT22;16942;53.196;6.592;2022-07-25T09:59:35;26.60;99.90
30128;DHT22;16942;53.196;6.592;2022-07-25T10:02:25;26.60;99.90
30128;DHT22;16942;53.196;6.592;2022-07-25T10:07:37;26.50;99.90
30128;DHT22;16942;53.196;6.592;2022-07-25T10:10:03;26.50;99.90
30128;DHT22;16942;53.196;6.592;2022-07-25T10:12:29;26.60;99.90
30128;DHT22;16942;53.196;6.592;2022-07-25T10:15:12;26.50;99.90
30128;DHT22;16942;53.196;6.592;2022-07-25T10:17:39;26.30;99.90
30128;DHT22;16942;53.196;6.592;2022-07-25T10:20:09;26.00;99.90
30128;DHT22;16942;53.196;6.592;2022-07-25T10:22:39;25.60;99.90
30128;DHT22;16942;53.196;6.592;2022-07-25T10:25:17;25.30;99.90
30128;DHT22;16942;53.196;6.592;2022-07-25T10:27:48;25.10;99.90
30128;DHT22;16942;53.196;6.592;2022-07-25T10:30:26;25.00;99.90
30128;DHT22;16942;53.196;6.592;2022-07-25T10:33:02;24.90;99.90
30128;DHT22;16942;53.196;6.592;2022-07-25T10:35:31;24.80;99.90
30128;DHT22;16942;53.196;6.592;2022-07-25T10:37:58;24.70;99.90
30128;DHT22;16942;53.196;6.592;2022-07-25T10:43:12;24.40;99.90
30128;DHT22;16942;53.196;6.592;2022-07-25T10:48:24;24.30;99.90
30128;DHT22;16942;53.196;6.592;2022-07-25T10:51:00;24.30;99.90
30128;DHT22;16942;53.196;6.592;2022-07-25T10:56:07;23.90;99.90
30128;DHT22;16942;53.196;6.592;2022-07-25T10:58:44;23.90;99.90
30128;DHT22;16942;53.196;6.592;2022-07-25T11:01:11;23.90;99.90
30128;DHT22;16942;53.196;6.592;2022-07-25T11:03:41;23.90;99.90
30128;DHT22;16942;53.196;6.592;2022-07-25T11:06:14;24.20;99.90
30128;DHT22;16942;53.196;6.592;2022-07-25T11:08:40;24.50;99.90
30128;DHT22;16942;53.196;6.592;2022-07-25T11:11:07;24.80;99.90
30128;DHT22;16942;53.196;6.592;2022-07-25T11:13:40;25.20;99.90
30128;DHT22;16942;53.196;6.592;2022-07-25T11:16:07;25.40;99.90
30128;DHT22;16942;53.196;6.592;2022-07-25T11:18:36;25.30;99.90
30128;DHT22;16942;53.196;6.592;2022-07-25T11:21:03;25.40;99.90
30128;DHT22;16942;53.196;6.592;2022-07-25T11:23:30;25.70;99.90
30128;DHT22;16942;53.196;6.592;2022-07-25T11:26:09;26.10;99.90
30128;DHT22;16942;53.196;6.592;2022-07-25T11:28:43;26.20;99.90
30128;DHT22;16942;53.196;6.592;2022-07-25T11:31:09;26.00;99.90
30128;DHT22;16942;53.196;6.592;2022-07-25T11:33:37;25.80;99.90
30128;DHT22;16942;53.196;6.592;2022-07-25T11:36:03;25.70;99.90
30128;DHT22;16942;53.196;6.592;2022-07-25T11:38:29;25.80;99.90
30128;DHT22;16942;53.196;6.592;2022-07-25T11:40:55;25.80;99.90
30128;DHT22;16942;53.196;6.592;2022-07-25T11:43:22;25.80;99.90
30128;DHT22;16942;53.196;6.592;2022-07-25T11:46:02;25.80;99.90
30128;DHT22;16942;53.196;6.592;2022-07-25T11:48:39;26.00;99.90
30128;DHT22;16942;53.196;6.592;2022-07-25T11:51:16;26.40;99.90
30128;DHT22;16942;53.196;6.592;2022-07-25T11:53:45;26.80;99.90
30128;DHT22;16942;53.196;6.592;2022-07-25T11:56:19;26.80;99.90
30128;DHT22;16942;53.196;6.592;2022-07-25T11:58:56;26.40;99.90
30128;DHT22;16942;53.196;6.592;2022-07-25T12:01:22;25.80;99.90
30128;DHT22;16942;53.196;6.592;2022-07-25T12:03:49;25.30;99.90
30128;DHT22;16942;53.196;6.592;2022-07-25T12:06:15;25.00;99.90
30128;DHT22;16942;53.196;6.592;2022-07-25T12:08:42;24.80;99.90
30128;DHT22;16942;53.196;6.592;2022-07-25T12:11:21;24.90;99.90
30128;DHT22;16942;53.196;6.592;2022-07-25T12:13:48;25.20;99.90
30128;DHT22;16942;53.196;6.592;2022-07-25T12:16:14;25.40;99.90
30128;DHT22;16942;53.196;6.592;2022-07-25T12:18:40;25.50;99.90
30128;DHT22;16942;53.196;6.592;2022-07-25T12:21:05;25.40;99.90
30128;DHT22;16942;53.196;6.592;2022-07-25T12:23:31;25.40;99.90
30128;DHT22;16942;53.196;6.592;2022-07-25T12:25:57;25.40;99.90
30128;DHT22;16942;53.196;6.592;2022-07-25T12:28:23;25.20;99.90
30128;DHT22;16942;53.196;6.592;2022-07-25T12:30:49;25.20;99.90
30128;DHT22;16942;53.196;6.592;2022-07-25T12:33:15;25.30;99.90
30128;DHT22;16942;53.196;6.592;2022-07-25T12:35:43;25.80;99.90
30128;DHT22;16942;53.196;6.592;2022-07-25T12:38:09;26.30;99.90
30128;DHT22;16942;53.196;6.592;2022-07-25T12:40:36;26.30;99.90
30128;DHT22;16942;53.196;6.592;2022-07-25T12:43:02;26.30;99.90
30128;DHT22;16942;53.196;6.592;2022-07-25T12:45:28;26.20;99.90
30128;DHT22;16942;53.196;6.592;2022-07-25T12:47:54;26.30;99.90
30128;DHT22;16942;53.196;6.592;2022-07-25T12:50:20;26.00;99.90
30128;DHT22;16942;53.196;6.592;2022-07-25T12:52:46;25.70;99.90
30128;DHT22;16942;53.196;6.592;2022-07-25T12:55:17;25.70;99.90
30128;DHT22;16942;53.196;6.592;2022-07-25T12:57:44;25.80;99.90
30128;DHT22;16942;53.196;6.592;2022-07-25T13:00:12;25.80;99.90
30128;DHT22;16942;53.196;6.592;2022-07-25T13:02:38;25.80;99.90
30128;DHT22;16942;53.196;6.592;2022-07-25T13:05:04;25.90;99.90
30128;DHT22;16942;53.196;6.592;2022-07-25T13:07:31;25.80;99.90
30128;DHT22;16942;53.196;6.592;2022-07-25T13:09:57;25.80;99.90
30128;DHT22;16942;53.196;6.592;2022-07-25T13:12:22;25.90;99.90
30128;DHT22;16942;53.196;6.592;2022-07-25T13:14:49;25.90;99.90
30128;DHT22;16942;53.196;6.592;2022-07-25T13:17:14;25.70;99.90
30128;DHT22;16942;53.196;6.592;2022-07-25T13:19:40;25.30;99.90
30128;DHT22;16942;53.196;6.592;2022-07-25T13:22:06;25.00;99.90
30128;DHT22;16942;53.196;6.592;2022-07-25T13:24:32;24.70;99.90
30128;DHT22;16942;53.196;6.592;2022-07-25T13:27:07;24.60;99.90
30128;DHT22;16942;53.196;6.592;2022-07-25T13:29:33;24.50;99.90
30128;DHT22;16942;53.196;6.592;2022-07-25T13:31:58;24.40;99.90
30128;DHT22;16942;53.196;6.592;2022-07-25T13:34:25;24.40;99.90
30128;DHT22;16942;53.196;6.592;2022-07-25T13:36:50;24.40;99.90
30128;DHT22;16942;53.196;6.592;2022-07-25T13:39:16;24.40;99.90
30128;DHT22;16942;53.196;6.592;2022-07-25T13:41:42;24.40;99.90
30128;DHT22;16942;53.196;6.592;2022-07-25T13:44:07;24.60;99.90
30128;DHT22;16942;53.196;6.592;2022-07-25T13:46:33;24.70;99.90
30128;DHT22;16942;53.196;6.592;2022-07-25T13:48:59;24.70;99.90
30128;DHT22;16942;53.196;6.592;2022-07-25T13:51:25;24.60;99.90
30128;DHT22;16942;53.196;6.592;2022-07-25T13:53:51;24.40;99.90
30128;DHT22;16942;53.196;6.592;2022-07-25T13:56:16;24.30;99.90
30128;DHT22;16942;53.196;6.592;2022-07-25T13:58:42;24.20;99.90
30128;DHT22;16942;53.196;6.592;2022-07-25T14:01:08;24.10;99.90
30128;DHT22;16942;53.196;6.592;2022-07-25T14:03:35;24.10;99.90
30128;DHT22;16942;53.196;6.592;2022-07-25T14:06:02;24.10;99.90
30128;DHT22;16942;53.196;6.592;2022-07-25T14:08:28;24.00;99.90
30128;DHT22;16942;53.196;6.592;2022-07-25T14:10:54;23.90;99.90
30128;DHT22;16942;53.196;6.592;2022-07-25T14:13:20;23.90;99.90
30128;DHT22;16942;53.196;6.592;2022-07-25T14:15:45;24.10;99.90
30128;DHT22;16942;53.196;6.592;2022-07-25T14:18:11;25.00;99.90
30128;DHT22;16942;53.196;6.592;2022-07-25T14:20:37;26.90;99.90
30128;DHT22;16942;53.196;6.592;2022-07-25T14:23:02;28.10;99.90
30128;DHT22;16942;53.196;6.592;2022-07-25T14:25:28;28.00;99.90
30128;DHT22;16942;53.196;6.592;2022-07-25T14:27:54;27.50;99.90
30128;DHT22;16942;53.196;6.592;2022-07-25T14:30:19;27.10;99.90
30128;DHT22;16942;53.196;6.592;2022-07-25T14:32:45;26.50;99.90
30128;DHT22;16942;53.196;6.592;2022-07-25T14:35:11;26.40;99.90
30128;DHT22;16942;53.196;6.592;2022-07-25T14:37:37;26.10;99.90
30128;DHT22;16942;53.196;6.592;2022-07-25T14:40:04;25.70;99.90
30128;DHT22;16942;53.196;6.592;2022-07-25T14:42:30;25.50;99.90
30128;DHT22;16942;53.196;6.592;2022-07-25T14:44:55;25.40;99.90
30128;DHT22;16942;53.196;6.592;2022-07-25T14:47:21;25.70;99.90
30128;DHT22;16942;53.196;6.592;2022-07-25T14:49:47;27.40;99.90
30128;DHT22;16942;53.196;6.592;2022-07-25T14:52:13;28.40;99.90
30128;DHT22;16942;53.196;6.592;2022-07-25T14:54:40;28.10;99.90
30128;DHT22;16942;53.196;6.592;2022-07-25T14:57:07;27.90;99.90
30128;DHT22;16942;53.196;6.592;2022-07-25T14:59:33;27.90;99.90
30128;DHT22;16942;53.196;6.592;2022-07-25T15:01:59;27.40;99.90
30128;DHT22;16942;53.196;6.592;2022-07-25T15:04:24;26.80;99.90
30128;DHT22;16942;53.196;6.592;2022-07-25T15:06:51;26.40;99.90
30128;DHT22;16942;53.196;6.592;2022-07-25T15:09:18;26.50;99.90
30128;DHT22;16942;53.196;6.592;2022-07-25T15:11:45;27.00;99.90
30128;DHT22;16942;53.196;6.592;2022-07-25T15:14:10;26.80;99.90
30128;DHT22;16942;53.196;6.592;2022-07-25T15:16:37;27.20;99.90
30128;DHT22;16942;53.196;6.592;2022-07-25T15:19:03;28.00;99.90
30128;DHT22;16942;53.196;6.592;2022-07-25T15:21:30;27.80;99.90
30128;DHT22;16942;53.196;6.592;2022-07-25T15:23:55;27.50;99.90
30128;DHT22;16942;53.196;6.592;2022-07-25T15:26:22;27.10;99.90
30128;DHT22;16942;53.196;6.592;2022-07-25T15:28:48;26.80;99.90
30128;DHT22;16942;53.196;6.592;2022-07-25T15:31:14;26.10;99.90
30128;DHT22;16942;53.196;6.592;2022-07-25T15:33:39;25.60;99.90
30128;DHT22;16942;53.196;6.592;2022-07-25T15:36:05;25.20;99.90
30128;DHT22;16942;53.196;6.592;2022-07-25T15:38:31;25.00;99.90
30128;DHT22;16942;53.196;6.592;2022-07-25T15:40:57;24.80;99.90